Time;durP1;ratioP1;P1;durP2;ratioP2;P2;SDS_P1;SDS_P2;PMS_P1;PMS_P2;Temp;Humidity;BMP_temperature;BMP_pressure;BME280_temperature;BME280_humidity;BME280_pressure;Samples;Min_cycle;Max_cycle;Signal;HPM_P1;HPM_P2
2022/06/22 00:02:19;;;;;;;29.27;7.32;;;20.10;99.90;;;;;;5069482;28;20041;-79
2022/06/22 00:04:56;;;;;;;31.52;7.28;;;20.10;99.90;;;;;;5044438;28;20037;-82
2022/06/22 00:07:29;;;;;;;25.15;7.63;;;20.00;99.90;;;;;;5101315;28;20060;-81
2022/06/22 00:10:17;;;;;;;29.15;7.70;;;20.00;99.90;;;;;;5049732;28;20045;-79
2022/06/22 00:12:49;;;;;;;35.80;8.15;;;20.10;99.90;;;;;;5056997;28;20034;-79
2022/06/22 00:15:36;;;;;;;23.67;7.28;;;20.10;99.90;;;;;;5091147;28;20029;-81
2022/06/22 00:18:25;;;;;;;26.75;7.25;;;20.20;99.90;;;;;;5071590;28;20044;-80
2022/06/22 00:20:55;;;;;;;32.22;6.70;;;20.10;99.90;;;;;;5052801;28;20428;-80
2022/06/22 00:23:36;;;;;;;30.65;7.07;;;20.10;99.90;;;;;;5086790;28;20116;-80
2022/06/22 00:26:25;;;;;;;27.42;6.47;;;20.10;99.90;;;;;;5071036;28;20048;-83
2022/06/22 00:28:59;;;;;;;24.25;6.82;;;20.10;99.90;;;;;;5100244;28;20082;-78
2022/06/22 00:31:33;;;;;;;24.33;7.10;;;20.00;99.90;;;;;;5050082;28;20049;-77
2022/06/22 00:34:14;;;;;;;29.90;6.45;;;20.00;99.90;;;;;;5082009;28;20068;-80
2022/06/22 00:37:02;;;;;;;21.95;5.85;;;20.00;99.90;;;;;;5082985;28;20043;-78
2022/06/22 00:39:30;;;;;;;23.52;5.22;;;19.90;99.90;;;;;;5086341;28;20481;-79
2022/06/22 00:42:24;;;;;;;26.70;6.35;;;20.00;99.90;;;;;;5068844;28;20040;-77
2022/06/22 00:45:05;;;;;;;32.95;5.78;;;20.00;99.90;;;;;;5083176;28;20097;-78
2022/06/22 00:47:40;;;;;;;28.38;5.10;;;20.00;99.90;;;;;;5055372;28;20029;-78
2022/06/22 00:50:19;;;;;;;23.27;5.18;;;20.00;99.90;;;;;;5063138;28;20051;-78
2022/06/22 00:52:58;;;;;;;22.30;5.45;;;19.90;99.90;;;;;;5049985;28;20492;-83
2022/06/22 00:55:59;;;;;;;23.10;5.47;;;19.80;99.90;;;;;;5048255;28;20413;-80
2022/06/22 00:58:37;;;;;;;21.88;4.97;;;19.90;99.90;;;;;;5052570;28;20084;-79
2022/06/22 01:01:40;;;;;;;27.95;5.22;;;20.00;99.90;;;;;;5096807;28;20124;-78
2022/06/22 01:04:44;;;;;;;20.20;4.95;;;20.10;99.90;;;;;;5062939;28;20068;-83
2022/06/22 01:07:25;;;;;;;25.08;5.60;;;20.20;99.90;;;;;;5088791;28;20063;-82
2022/06/22 01:10:33;;;;;;;23.15;5.38;;;20.30;99.90;;;;;;5071666;28;20559;-77
2022/06/22 01:13:04;;;;;;;23.05;5.35;;;20.40;99.90;;;;;;5058129;28;20018;-78
2022/06/22 01:15:53;;;;;;;22.20;4.78;;;20.50;99.90;;;;;;5087089;28;20079;-80
2022/06/22 01:18:36;;;;;;;21.88;4.82;;;20.60;99.90;;;;;;5065932;28;20051;-76
2022/06/22 01:21:23;;;;;;;21.10;4.97;;;20.70;99.90;;;;;;5068693;28;20066;-82
2022/06/22 01:23:59;;;;;;;30.60;5.45;;;20.80;99.90;;;;;;5053525;28;20041;-81
2022/06/22 01:26:52;;;;;;;18.27;4.40;;;20.80;99.90;;;;;;5054790;28;20085;-76
2022/06/22 01:29:24;;;;;;;22.95;5.55;;;20.90;99.90;;;;;;5054316;28;20037;-80
2022/06/22 01:32:05;;;;;;;23.23;4.82;;;21.00;99.90;;;;;;5073550;28;20484;-78
2022/06/22 01:34:38;;;;;;;25.60;5.38;;;21.10;99.90;;;;;;5052445;28;20029;-80
2022/06/22 01:37:11;;;;;;;23.98;5.43;;;21.10;99.90;;;;;;5093715;28;20041;-80
2022/06/22 01:39:40;;;;;;;17.65;4.40;;;21.20;99.90;;;;;;5073256;28;20044;-83
2022/06/22 01:42:24;;;;;;;25.90;5.47;;;21.30;99.90;;;;;;5087974;28;20067;-83
2022/06/22 01:44:56;;;;;;;24.50;4.80;;;21.40;99.90;;;;;;5059954;28;20048;-82
2022/06/22 01:47:44;;;;;;;19.55;4.70;;;21.50;99.90;;;;;;5060047;28;20047;-84
2022/06/22 01:50:22;;;;;;;21.17;5.15;;;21.60;99.90;;;;;;5061502;28;20079;-79
2022/06/22 01:53:18;;;;;;;22.83;4.80;;;21.80;99.90;;;;;;5073542;28;20036;-85
2022/06/22 01:55:54;;;;;;;24.33;5.38;;;21.80;99.90;;;;;;5069917;28;20041;-77
2022/06/22 01:58:20;;;;;;;21.63;4.88;;;21.70;99.90;;;;;;5091166;28;20029;-80
2022/06/22 02:00:57;;;;;;;20.20;5.03;;;21.60;99.90;;;;;;5085189;28;20025;-78
2022/06/22 02:03:29;;;;;;;21.77;4.65;;;21.60;99.90;;;;;;5074618;28;20052;-78
2022/06/22 02:09:12;;;;;;;20.92;5.15;;;21.70;99.90;;;;;;5073310;28;20436;-82
2022/06/22 02:11:47;;;;;;;26.25;5.45;;;21.60;99.90;;;;;;5057296;28;20044;-78
2022/06/22 02:14:25;;;;;;;24.52;6.05;;;21.50;99.90;;;;;;5050886;28;20041;-83
2022/06/22 02:17:01;;;;;;;24.23;5.90;;;21.60;99.90;;;;;;5064668;28;20131;-83
2022/06/22 02:19:29;;;;;;;29.80;5.47;;;21.50;99.90;;;;;;5088613;28;20029;-79
2022/06/22 02:21:57;;;;;;;28.42;7.03;;;21.50;99.90;;;;;;5067542;28;20032;-79
2022/06/22 02:24:33;;;;;;;26.15;5.55;;;21.40;99.90;;;;;;5074845;28;20036;-77
2022/06/22 02:26:59;;;;;;;22.88;5.50;;;21.40;99.90;;;;;;5087878;28;20246;-83
2022/06/22 02:29:29;;;;;;;25.52;5.38;;;21.40;99.90;;;;;;5069376;28;20093;-80
2022/06/22 02:31:59;;;;;;;29.65;6.32;;;21.30;99.90;;;;;;5067932;28;20035;-77
2022/06/22 02:34:28;;;;;;;26.15;5.38;;;21.40;99.90;;;;;;5069000;28;20036;-81
2022/06/22 02:36:59;;;;;;;30.92;6.53;;;21.40;99.90;;;;;;5062612;28;20033;-76
2022/06/22 02:39:26;;;;;;;25.50;5.72;;;21.30;99.90;;;;;;5080290;28;20044;-84
2022/06/22 02:44:42;;;;;;;30.27;5.85;;;21.20;99.90;;;;;;5079734;28;20035;-78
2022/06/22 02:47:20;;;;;;;25.33;5.07;;;21.20;99.90;;;;;;5080710;28;20396;-78
2022/06/22 02:50:11;;;;;;;20.10;5.75;;;21.30;99.90;;;;;;5069351;28;20044;-77
2022/06/22 02:52:47;;;;;;;28.70;4.55;;;21.30;99.90;;;;;;5076343;28;20024;-77
2022/06/22 02:55:17;;;;;;;25.48;5.10;;;21.40;99.90;;;;;;5067237;28;20430;-79
2022/06/22 02:57:56;;;;;;;21.83;5.05;;;21.30;99.90;;;;;;5079522;28;20029;-78
2022/06/22 03:00:38;;;;;;;24.50;5.25;;;21.40;99.90;;;;;;5080131;28;21035;-78
2022/06/22 03:03:11;;;;;;;26.10;5.03;;;21.40;99.90;;;;;;5047532;28;20083;-79
2022/06/22 03:05:39;;;;;;;21.70;5.10;;;21.50;99.90;;;;;;5079330;28;20033;-78
2022/06/22 03:08:07;;;;;;;21.55;5.13;;;21.50;99.90;;;;;;5062431;28;20099;-77
2022/06/22 03:10:45;;;;;;;21.88;5.47;;;21.40;99.90;;;;;;5076300;28;20048;-82
2022/06/22 03:13:16;;;;;;;21.08;5.13;;;21.40;99.90;;;;;;5078367;28;20053;-80
2022/06/22 03:15:44;;;;;;;23.75;4.80;;;21.30;99.90;;;;;;5077292;28;20044;-77
2022/06/22 03:18:24;;;;;;;22.80;4.90;;;21.30;99.90;;;;;;5058586;28;20041;-78
2022/06/22 03:21:11;;;;;;;21.88;5.00;;;21.40;99.90;;;;;;5038712;28;20107;-80
2022/06/22 03:24:09;;;;;;;21.98;4.53;;;21.40;99.90;;;;;;5076093;28;20071;-84
2022/06/22 03:26:44;;;;;;;26.15;5.32;;;21.50;99.90;;;;;;5056875;28;20036;-78
2022/06/22 03:29:28;;;;;;;21.95;5.22;;;21.50;99.90;;;;;;5045703;28;20090;-81
2022/06/22 03:32:06;;;;;;;18.95;4.70;;;21.50;99.90;;;;;;5045736;28;20075;-81
2022/06/22 03:34:42;;;;;;;26.35;5.40;;;21.50;99.90;;;;;;5083081;28;20032;-77
2022/06/22 03:37:16;;;;;;;22.90;5.05;;;21.50;99.90;;;;;;5043074;28;20061;-82
2022/06/22 03:39:46;;;;;;;24.02;4.93;;;21.50;99.90;;;;;;5046632;28;20064;-84
2022/06/22 03:42:26;;;;;;;22.58;4.80;;;21.60;99.90;;;;;;5085738;28;20048;-77
2022/06/22 03:45:04;;;;;;;21.08;4.70;;;21.60;99.90;;;;;;5038545;28;20033;-83
2022/06/22 03:47:48;;;;;;;23.15;5.28;;;21.60;99.90;;;;;;5071143;28;20174;-82
2022/06/22 03:50:38;;;;;;;22.10;4.63;;;21.70;99.90;;;;;;5038707;28;20087;-78
2022/06/22 03:53:12;;;;;;;22.60;4.68;;;21.60;99.90;;;;;;5042857;28;20564;-82
2022/06/22 03:55:44;;;;;;;21.38;4.57;;;21.70;99.90;;;;;;5045024;28;20855;-79
2022/06/22 03:58:11;;;;;;;23.90;5.53;;;21.70;99.90;;;;;;5067296;28;20037;-82
2022/06/22 04:00:40;;;;;;;19.48;5.30;;;21.60;99.90;;;;;;5067658;28;20024;-77
2022/06/22 04:03:08;;;;;;;22.42;4.60;;;21.60;99.90;;;;;;5078984;28;20040;-77
2022/06/22 04:05:41;;;;;;;17.17;4.30;;;21.60;99.90;;;;;;5079421;28;20047;-78
2022/06/22 04:08:20;;;;;;;22.90;4.85;;;21.60;99.90;;;;;;5068403;28;20033;-80
2022/06/22 04:10:58;;;;;;;23.02;5.38;;;21.50;99.90;;;;;;5093170;28;20118;-77
2022/06/22 04:13:38;;;;;;;24.60;4.88;;;21.60;99.90;;;;;;5036696;28;20036;-79
2022/06/22 04:16:37;;;;;;;26.55;4.78;;;21.50;99.90;;;;;;5068565;28;20047;-81
2022/06/22 04:19:15;;;;;;;19.75;4.72;;;21.50;99.90;;;;;;5081405;28;20381;-81
2022/06/22 04:21:50;;;;;;;27.45;5.70;;;21.50;99.90;;;;;;5069272;28;20041;-82
2022/06/22 04:24:24;;;;;;;24.27;5.20;;;21.40;99.90;;;;;;5069148;28;20045;-80
2022/06/22 04:27:09;;;;;;;18.85;5.10;;;21.40;99.90;;;;;;5067052;28;20051;-76
2022/06/22 04:29:43;;;;;;;20.73;4.70;;;21.50;99.90;;;;;;5080128;28;20051;-80
2022/06/22 04:32:21;;;;;;;22.33;4.50;;;21.60;99.90;;;;;;5061256;28;20033;-82
2022/06/22 04:34:58;;;;;;;27.10;4.90;;;21.50;99.90;;;;;;5071851;28;20578;-82
2022/06/22 04:37:47;;;;;;;23.25;4.80;;;21.60;99.90;;;;;;5049976;28;20041;-76
2022/06/22 04:40:26;;;;;;;23.52;4.90;;;21.70;99.90;;;;;;5067392;28;20040;-77
2022/06/22 04:42:59;;;;;;;31.00;5.97;;;21.70;99.90;;;;;;5081701;28;20086;-77
2022/06/22 04:45:40;;;;;;;19.30;4.93;;;21.70;99.90;;;;;;5085554;28;20142;-77
2022/06/22 04:48:11;;;;;;;21.15;5.10;;;21.70;99.90;;;;;;5064053;28;20052;-78
2022/06/22 04:50:40;;;;;;;19.67;4.88;;;21.80;99.90;;;;;;5067491;28;20053;-76
2022/06/22 04:53:31;;;;;;;24.20;5.28;;;21.80;99.90;;;;;;5079941;28;20118;-77
2022/06/22 04:56:02;;;;;;;29.45;5.72;;;21.90;99.90;;;;;;5058069;28;20511;-81
2022/06/22 04:58:54;;;;;;;25.00;5.18;;;22.00;99.90;;;;;;5058361;28;20113;-80
2022/06/22 05:01:33;;;;;;;28.60;5.85;;;22.10;99.90;;;;;;5066321;28;20032;-79
2022/06/22 05:04:09;;;;;;;28.05;5.50;;;22.00;99.90;;;;;;5084696;28;20040;-76
2022/06/22 05:06:47;;;;;;;23.80;7.47;;;22.10;99.90;;;;;;5066163;28;20108;-77
2022/06/22 05:09:33;;;;;;;24.63;5.28;;;22.10;99.90;;;;;;5069190;28;20052;-79
2022/06/22 05:12:01;;;;;;;20.13;5.20;;;22.20;99.90;;;;;;5071334;28;20068;-84
2022/06/22 05:14:33;;;;;;;24.77;6.07;;;22.30;99.90;;;;;;5063810;28;20059;-80
2022/06/22 05:17:03;;;;;;;27.20;5.70;;;22.40;99.90;;;;;;5059038;28;20037;-79
2022/06/22 05:20:10;;;;;;;27.40;5.85;;;22.40;99.90;;;;;;5083297;28;20043;-78
2022/06/22 05:22:36;;;;;;;21.15;5.38;;;22.40;99.90;;;;;;5059116;28;20036;-78
2022/06/22 05:25:06;;;;;;;22.13;5.53;;;22.50;99.90;;;;;;5067317;28;20086;-82
2022/06/22 05:27:52;;;;;;;24.55;5.45;;;22.50;99.90;;;;;;5063311;28;20036;-80
2022/06/22 05:30:20;;;;;;;24.55;6.07;;;22.60;99.90;;;;;;5068597;28;20040;-82
2022/06/22 05:32:58;;;;;;;30.67;6.05;;;22.70;99.90;;;;;;5066048;28;20036;-80
2022/06/22 05:35:32;;;;;;;25.42;6.43;;;22.80;99.90;;;;;;5084405;28;20032;-79
2022/06/22 05:38:03;;;;;;;28.08;6.25;;;22.90;99.90;;;;;;5069342;28;20109;-81
2022/06/22 05:40:35;;;;;;;18.05;5.63;;;22.90;99.90;;;;;;5054150;28;20045;-79
2022/06/22 05:43:01;;;;;;;27.70;6.00;;;22.90;99.90;;;;;;5045566;28;20051;-81
2022/06/22 05:45:36;;;;;;;25.98;5.80;;;23.00;99.90;;;;;;5059314;28;20045;-78
2022/06/22 05:48:04;;;;;;;20.35;5.78;;;23.00;99.90;;;;;;5079382;28;20181;-82
2022/06/22 05:50:37;;;;;;;28.98;5.85;;;23.10;99.90;;;;;;5068043;28;20043;-77
2022/06/22 05:53:27;;;;;;;26.52;6.07;;;23.10;99.90;;;;;;5053796;28;20064;-77
2022/06/22 05:56:28;;;;;;;24.10;6.00;;;23.10;99.90;;;;;;5053379;28;20649;-79
2022/06/22 05:59:12;;;;;;;27.23;6.63;;;23.10;99.90;;;;;;5053843;28;20717;-79
2022/06/22 06:01:56;;;;;;;25.30;6.38;;;23.10;99.90;;;;;;5053535;28;20037;-80
2022/06/22 06:05:00;;;;;;;24.27;6.13;;;23.10;99.90;;;;;;5049474;28;20257;-78
2022/06/22 06:07:48;;;;;;;23.33;6.10;;;23.20;99.90;;;;;;5037419;28;20044;-78
2022/06/22 06:10:23;;;;;;;25.83;6.32;;;23.30;99.90;;;;;;5060728;28;21286;-78
2022/06/22 06:13:02;;;;;;;33.13;7.25;;;23.30;99.90;;;;;;5062376;28;20033;-78
2022/06/22 06:15:36;;;;;;;25.35;7.30;;;23.40;99.90;;;;;;5101084;28;20078;-81
2022/06/22 06:18:04;;;;;;;34.70;6.72;;;23.40;99.90;;;;;;5083620;28;20260;-78
2022/06/22 06:20:38;;;;;;;22.80;6.53;;;23.50;99.90;;;;;;5081232;28;20044;-80
2022/06/22 06:23:12;;;;;;;32.13;7.38;;;23.60;99.90;;;;;;5060775;28;20516;-79
2022/06/22 06:28:58;;;;;;;27.52;6.68;;;23.80;99.90;;;;;;5066936;28;20111;-81
2022/06/22 06:31:34;;;;;;;31.27;7.18;;;24.00;99.90;;;;;;5067299;28;20102;-83
2022/06/22 06:34:02;;;;;;;29.00;7.03;;;24.10;99.90;;;;;;5065880;28;20835;-77
2022/06/22 06:36:39;;;;;;;29.70;7.15;;;24.20;99.90;;;;;;5085253;28;20036;-76
2022/06/22 06:39:20;;;;;;;25.88;7.05;;;24.40;99.90;;;;;;5083387;28;20037;-81
2022/06/22 06:42:11;;;;;;;31.70;8.15;;;24.60;99.90;;;;;;5084452;28;20037;-82
2022/06/22 06:44:39;;;;;;;29.30;7.93;;;24.70;99.90;;;;;;5050792;28;20037;-80
2022/06/22 06:47:15;;;;;;;28.73;7.05;;;24.70;99.90;;;;;;5057926;28;20048;-78
2022/06/22 06:49:49;;;;;;;27.98;7.50;;;24.70;99.90;;;;;;5080563;28;20183;-79
2022/06/22 06:52:40;;;;;;;28.38;6.82;;;24.60;99.90;;;;;;5083235;28;20037;-77
2022/06/22 06:55:15;;;;;;;28.73;7.03;;;24.30;99.90;;;;;;5074015;28;20037;-79
2022/06/22 06:57:59;;;;;;;28.20;6.43;;;23.60;99.90;;;;;;5054919;28;20035;-80
2022/06/22 07:00:27;;;;;;;25.75;6.63;;;23.50;99.90;;;;;;5080994;28;20048;-79
2022/06/22 07:02:53;;;;;;;25.98;6.60;;;23.60;99.90;;;;;;5060334;28;20053;-81
2022/06/22 07:05:22;;;;;;;27.75;6.20;;;23.90;99.90;;;;;;5051679;28;20041;-79
2022/06/22 07:08:09;;;;;;;32.50;7.63;;;24.00;99.90;;;;;;5054014;28;20036;-81
2022/06/22 07:10:41;;;;;;;59.47;9.85;;;24.00;99.90;;;;;;5078245;28;20083;-77
2022/06/22 07:13:16;;;;;;;39.95;9.30;;;23.70;99.90;;;;;;5069200;28;20040;-79
2022/06/22 07:15:50;;;;;;;30.92;7.82;;;22.70;99.90;;;;;;5082350;28;20515;-82
2022/06/22 07:18:32;;;;;;;32.90;7.35;;;22.20;99.90;;;;;;5066590;28;20064;-81
2022/06/22 07:21:17;;;;;;;26.33;6.88;;;21.80;99.90;;;;;;5072083;28;20074;-84
2022/06/22 07:24:04;;;;;;;29.25;7.38;;;21.50;99.90;;;;;;5070090;28;20127;-79
2022/06/22 07:27:13;;;;;;;27.65;8.13;;;21.50;99.90;;;;;;5059967;28;20037;-82
2022/06/22 07:29:50;;;;;;;43.60;8.38;;;21.40;99.90;;;;;;5090313;28;20044;-79
2022/06/22 07:32:48;;;;;;;39.20;8.45;;;21.50;99.90;;;;;;5057079;28;20037;-77
2022/06/22 07:35:39;;;;;;;39.45;8.63;;;21.40;99.90;;;;;;5081160;28;20548;-80
2022/06/22 07:38:28;;;;;;;33.00;8.32;;;21.50;99.90;;;;;;5041206;28;20037;-81
2022/06/22 07:43:44;;;;;;;35.03;8.60;;;21.50;99.90;;;;;;5084861;28;20048;-79
2022/06/22 07:46:25;;;;;;;27.33;8.70;;;22.50;99.90;;;;;;5085644;28;20072;-81
2022/06/22 07:48:54;;;;;;;33.42;9.30;;;21.80;99.90;;;;;;5069654;28;20057;-77
2022/06/22 07:51:27;;;;;;;29.38;9.30;;;22.80;99.90;;;;;;5070883;28;20037;-82
2022/06/22 07:54:10;;;;;;;52.25;21.88;;;21.80;99.90;;;;;;5048464;28;20072;-79
2022/06/22 07:57:04;;;;;;;33.60;10.63;;;22.30;99.90;;;;;;5074031;28;20057;-83
2022/06/22 07:59:53;;;;;;;38.88;9.20;;;21.90;99.90;;;;;;5048979;28;20116;-82
2022/06/22 08:02:46;;;;;;;28.00;8.95;;;22.10;99.90;;;;;;5068500;28;20028;-77
2022/06/22 08:05:17;;;;;;;28.23;8.82;;;22.00;99.90;;;;;;5049500;28;20041;-81
2022/06/22 08:08:13;;;;;;;33.05;7.90;;;22.70;99.90;;;;;;5078998;28;20037;-78
2022/06/22 08:10:50;;;;;;;34.47;9.45;;;22.10;99.90;;;;;;5081804;28;20466;-78
2022/06/22 08:13:20;;;;;;;29.05;8.82;;;22.50;99.90;;;;;;5060356;28;20034;-78
2022/06/22 08:16:19;;;;;;;35.15;8.40;;;22.60;99.90;;;;;;5068825;28;20036;-78
2022/06/22 08:18:48;;;;;;;28.13;8.45;;;23.10;99.90;;;;;;5057461;28;20045;-78
2022/06/22 08:21:17;;;;;;;35.95;9.10;;;23.00;99.90;;;;;;5082588;28;20052;-78
2022/06/22 08:23:44;;;;;;;26.75;8.05;;;23.00;99.90;;;;;;5069955;28;20036;-78
2022/06/22 08:26:24;;;;;;;32.30;8.30;;;23.20;99.90;;;;;;5069348;28;20048;-78
2022/06/22 08:28:51;;;;;;;27.05;8.43;;;23.00;99.90;;;;;;5064977;28;20377;-80
2022/06/22 08:31:18;;;;;;;32.25;8.50;;;23.30;99.90;;;;;;5053613;28;20041;-79
2022/06/22 08:33:57;;;;;;;38.10;9.02;;;23.40;99.90;;;;;;5081764;28;20044;-80
2022/06/22 08:36:28;;;;;;;31.92;8.20;;;23.40;99.90;;;;;;5057031;28;20124;-79
2022/06/22 08:39:26;;;;;;;31.02;8.13;;;23.40;99.90;;;;;;5040991;28;20057;-77
2022/06/22 08:42:10;;;;;;;39.92;9.02;;;23.30;99.90;;;;;;5039075;28;20184;-80
2022/06/22 08:44:37;;;;;;;33.97;8.75;;;23.20;99.90;;;;;;5045350;28;20123;-78
2022/06/22 08:47:32;;;;;;;31.75;7.90;;;23.20;99.90;;;;;;5064265;28;20120;-83
2022/06/22 08:50:25;;;;;;;45.15;8.50;;;23.10;99.90;;;;;;5043498;28;20037;-82
2022/06/22 08:53:10;;;;;;;;;;;23.10;99.90;;;;;;5057515;28;20033;-79
2022/06/22 08:55:51;;;;;;;27.20;7.10;;;23.10;99.90;;;;;;5063555;28;19920;-78
2022/06/22 08:58:37;;;;;;;33.20;7.95;;;23.20;99.90;;;;;;5064315;28;20033;-76
2022/06/22 09:01:17;;;;;;;28.85;6.13;;;23.30;99.90;;;;;;5067269;28;20528;-76
2022/06/22 09:04:01;;;;;;;33.20;7.28;;;23.50;99.90;;;;;;5050384;28;20049;-81
2022/06/22 09:06:52;;;;;;;25.60;7.35;;;23.80;99.90;;;;;;5079122;28;20038;-83
2022/06/22 09:09:36;;;;;;;34.67;7.40;;;24.10;99.90;;;;;;5054929;28;20049;-82
2022/06/22 09:12:11;;;;;;;31.13;7.35;;;24.40;99.90;;;;;;5065908;28;20041;-76
2022/06/22 09:14:47;;;;;;;26.73;6.72;;;24.70;99.90;;;;;;5079666;28;20041;-84
2022/06/22 09:17:30;;;;;;;31.90;7.18;;;25.70;99.90;;;;;;5062024;28;20773;-79
2022/06/22 09:19:59;;;;;;;29.65;6.90;;;26.00;99.90;;;;;;5068272;28;20032;-78
2022/06/22 09:22:58;;;;;;;28.23;7.28;;;26.70;99.90;;;;;;5077872;28;20037;-76
2022/06/22 09:25:27;;;;;;;28.05;7.13;;;26.50;99.90;;;;;;5056163;28;20051;-77
2022/06/22 09:28:09;;;;;;;28.95;6.80;;;26.40;99.90;;;;;;5084134;28;20029;-76
2022/06/22 09:31:09;;;;;;;40.00;7.45;;;27.00;99.90;;;;;;5079359;28;20630;-78
2022/06/22 09:33:47;;;;;;;26.33;6.28;;;27.80;99.90;;;;;;5074090;28;20032;-81
2022/06/22 09:36:42;;;;;;;31.73;7.15;;;27.50;99.90;;;;;;5088755;28;20047;-79
2022/06/22 09:39:24;;;;;;;34.15;7.28;;;27.70;99.90;;;;;;5084484;28;20107;-79
2022/06/22 09:42:31;;;;;;;31.08;7.22;;;28.60;99.90;;;;;;5093353;28;20036;-82
2022/06/22 09:45:12;;;;;;;27.17;7.10;;;30.30;99.90;;;;;;5088197;28;20017;-79
2022/06/22 09:47:57;;;;;;;32.97;7.20;;;30.60;99.90;;;;;;5087851;28;20040;-80
2022/06/22 09:51:01;;;;;;;33.97;7.72;;;31.40;99.90;;;;;;5071977;28;20149;-81
2022/06/22 09:53:55;;;;;;;31.02;8.00;;;32.30;99.90;;;;;;5069951;28;20097;-80
2022/06/22 09:56:39;;;;;;;36.30;7.93;;;32.30;99.90;;;;;;5083755;28;20132;-81
2022/06/22 09:59:43;;;;;;;33.08;7.85;;;31.30;99.90;;;;;;5053345;28;20098;-80
2022/06/22 10:02:36;;;;;;;35.70;8.85;;;32.00;99.90;;;;;;5056184;28;20780;-81
2022/06/22 10:05:53;;;;;;;30.00;6.93;;;32.60;99.90;;;;;;5066406;28;20036;-80
2022/06/22 10:08:40;;;;;;;31.77;6.97;;;31.90;99.90;;;;;;5011939;28;20039;-80
2022/06/22 10:11:45;;;;;;;28.25;6.75;;;32.20;99.90;;;;;;5001979;28;20053;-80
2022/06/22 10:14:42;;;;;;;30.27;6.80;;;32.50;99.90;;;;;;5018828;28;20033;-82
2022/06/22 10:17:11;;;;;;;26.77;7.28;;;32.20;99.90;;;;;;5083059;28;20047;-82
2022/06/22 10:20:04;;;;;;;32.53;6.57;;;31.60;99.90;;;;;;5078917;28;20033;-81
2022/06/22 10:22:39;;;;;;;32.63;8.32;;;31.70;99.90;;;;;;5057661;28;20108;-78
2022/06/22 10:25:13;;;;;;;32.72;8.85;;;31.20;99.90;;;;;;5078139;28;20044;-83
2022/06/22 10:28:16;;;;;;;29.13;8.05;;;30.60;99.90;;;;;;5077624;28;20040;-77
2022/06/22 10:31:03;;;;;;;34.63;7.85;;;29.80;99.90;;;;;;5076545;28;20117;-79
2022/06/22 10:34:02;;;;;;;33.30;7.97;;;29.00;99.90;;;;;;5076098;28;20055;-78
2022/06/22 10:36:45;;;;;;;38.78;7.90;;;28.50;99.90;;;;;;5058219;28;20037;-77
2022/06/22 10:39:28;;;;;;;28.67;6.95;;;28.10;99.90;;;;;;5045013;28;20045;-77
2022/06/22 10:45:22;;;;;;;32.08;7.53;;;27.90;99.90;;;;;;5042164;28;20152;-79
2022/06/22 10:48:24;;;;;;;33.33;7.47;;;27.60;99.90;;;;;;5022876;28;20075;-77
2022/06/22 10:51:03;;;;;;;36.25;7.97;;;27.70;99.90;;;;;;5082550;28;20048;-78
2022/06/22 10:53:44;;;;;;;29.67;7.70;;;28.50;99.90;;;;;;5054228;28;20037;-76
2022/06/22 10:56:13;;;;;;;30.00;7.40;;;29.00;99.90;;;;;;5046915;28;20091;-76
2022/06/22 10:58:42;;;;;;;33.15;7.22;;;29.50;99.90;;;;;;5044417;28;20059;-79
2022/06/22 11:01:14;;;;;;;31.80;6.28;;;29.60;99.90;;;;;;5074264;28;20049;-80
2022/06/22 11:04:18;;;;;;;38.25;8.23;;;29.60;99.90;;;;;;5053482;28;20055;-78
2022/06/22 11:07:01;;;;;;;31.30;7.60;;;30.60;99.90;;;;;;5042023;28;20041;-77
2022/06/22 11:09:46;;;;;;;29.02;7.07;;;30.90;99.90;;;;;;5071249;28;20513;-79
2022/06/22 11:12:27;;;;;;;32.63;7.70;;;31.50;99.90;;;;;;5051047;28;20041;-79
2022/06/22 11:15:18;;;;;;;32.25;7.20;;;31.40;99.90;;;;;;5052924;28;20052;-82
2022/06/22 11:17:52;;;;;;;;;;;31.60;99.90;;;;;;5051706;28;20212;-81
2022/06/22 11:20:49;;;;;;;36.65;6.88;;;31.40;99.90;;;;;;5044872;28;20023;-78
2022/06/22 11:23:44;;;;;;;32.17;7.40;;;31.70;99.90;;;;;;5039745;28;20041;-77
2022/06/22 11:31:59;;;;;;;28.95;5.95;;;31.60;99.90;;;;;;5045600;28;20062;-76
2022/06/22 11:34:51;;;;;;;28.73;6.97;;;31.40;99.90;;;;;;5055809;28;20056;-76
2022/06/22 11:37:30;;;;;;;20.58;6.15;;;31.50;99.90;;;;;;5057265;28;20037;-82
2022/06/22 11:40:20;;;;;;;23.30;5.82;;;31.20;99.90;;;;;;5068842;28;20032;-77
2022/06/22 11:43:08;;;;;;;26.48;6.07;;;31.10;99.90;;;;;;5084088;28;20033;-80
2022/06/22 11:45:56;;;;;;;24.42;6.15;;;31.20;99.90;;;;;;5085242;28;20152;-81
2022/06/22 11:48:49;;;;;;;27.05;6.05;;;31.30;99.90;;;;;;5079610;28;21526;-77
2022/06/22 11:51:30;;;;;;;23.88;6.65;;;31.60;99.90;;;;;;5066997;28;20499;-80
2022/06/22 11:54:09;;;;;;;27.02;5.82;;;31.80;99.90;;;;;;5073983;28;20048;-78
2022/06/22 11:57:02;;;;;;;23.90;5.38;;;32.00;99.90;;;;;;5076475;28;20028;-77
2022/06/22 11:59:32;;;;;;;21.75;5.85;;;32.40;99.90;;;;;;5014330;28;20033;-79
2022/06/22 12:02:09;;;;;;;23.43;5.10;;;32.40;99.90;;;;;;5060111;28;20763;-77
2022/06/22 12:05:14;;;;;;;20.52;5.63;;;32.30;99.90;;;;;;5072290;28;20075;-79
2022/06/22 12:07:59;;;;;;;27.05;6.03;;;32.30;99.90;;;;;;5051215;28;20572;-82
2022/06/22 12:10:27;;;;;;;25.02;5.68;;;32.80;99.90;;;;;;5071875;28;20088;-77
2022/06/22 12:13:32;;;;;;;19.85;5.30;;;32.60;99.90;;;;;;5075705;28;20043;-76
2022/06/22 12:16:03;;;;;;;24.38;5.18;;;32.80;99.90;;;;;;5032452;28;20071;-78
2022/06/22 12:18:44;;;;;;;25.52;6.05;;;33.00;99.90;;;;;;5064399;28;20049;-84
2022/06/22 12:21:50;;;;;;;26.15;5.80;;;33.20;99.90;;;;;;5064042;28;20084;-77
2022/06/22 12:24:45;;;;;;;22.67;5.30;;;32.90;99.90;;;;;;5069313;28;20729;-83
2022/06/22 12:27:30;;;;;;;21.30;4.85;;;32.20;99.90;;;;;;5070212;28;20069;-80
2022/06/22 12:30:17;;;;;;;21.42;5.10;;;32.90;99.90;;;;;;5069738;28;20102;-78
2022/06/22 12:32:59;;;;;;;23.73;5.10;;;33.20;99.90;;;;;;5071079;28;20134;-78
2022/06/22 12:35:29;;;;;;;20.38;5.13;;;32.60;99.90;;;;;;5083668;28;20088;-78
2022/06/22 12:38:11;;;;;;;18.90;4.75;;;32.30;99.90;;;;;;5070073;28;20036;-82
2022/06/22 12:40:57;;;;;;;18.17;5.00;;;32.70;99.90;;;;;;5069030;28;20037;-82
2022/06/22 12:43:50;;;;;;;27.55;4.93;;;32.50;99.90;;;;;;5062687;28;20055;-77
2022/06/22 12:46:59;;;;;;;17.60;4.45;;;32.10;99.90;;;;;;5067704;28;20111;-79
2022/06/22 12:49:47;;;;;;;19.20;4.65;;;31.60;99.90;;;;;;5082209;28;20063;-79
2022/06/22 12:52:20;;;;;;;20.90;4.97;;;31.90;99.90;;;;;;5064908;28;20108;-83
2022/06/22 12:55:00;;;;;;;26.27;5.45;;;31.90;99.90;;;;;;5088276;28;20077;-82
2022/06/22 12:57:35;;;;;;;24.15;5.85;;;31.60;99.90;;;;;;5068759;28;20037;-78
2022/06/22 13:00:11;;;;;;;28.98;6.25;;;32.30;99.90;;;;;;5070412;28;20033;-80
2022/06/22 13:02:40;;;;;;;21.13;5.38;;;32.30;99.90;;;;;;5068521;28;20119;-79
2022/06/22 13:05:23;;;;;;;28.90;5.95;;;31.90;99.90;;;;;;5084063;28;20033;-82
2022/06/22 13:07:56;;;;;;;27.67;5.88;;;32.20;99.90;;;;;;5071723;28;20032;-78
2022/06/22 13:10:26;;;;;;;23.88;5.20;;;32.50;99.90;;;;;;5064733;28;21646;-79
2022/06/22 13:13:14;;;;;;;24.23;5.60;;;32.80;99.90;;;;;;5072251;28;20021;-79
2022/06/22 13:16:20;;;;;;;25.63;5.10;;;32.10;99.90;;;;;;5064480;28;20028;-83
2022/06/22 13:18:49;;;;;;;20.85;5.10;;;32.50;99.90;;;;;;5071082;28;20032;-79
2022/06/22 13:21:54;;;;;;;29.13;5.90;;;32.30;99.90;;;;;;5078178;28;20843;-78
2022/06/22 13:25:06;;;;;;;25.00;5.22;;;31.70;99.90;;;;;;5068533;28;20032;-81
2022/06/22 13:28:03;;;;;;;23.90;5.60;;;31.80;99.90;;;;;;5068345;28;20028;-78
2022/06/22 13:31:08;;;;;;;25.80;5.57;;;31.70;99.90;;;;;;5086302;28;20349;-78
2022/06/22 13:33:47;;;;;;;20.27;4.07;;;31.60;99.90;;;;;;5031689;28;20123;-81
2022/06/22 13:36:33;;;;;;;20.50;5.05;;;30.70;99.90;;;;;;5051729;28;20040;-78
2022/06/22 13:39:15;;;;;;;20.77;5.68;;;31.30;99.90;;;;;;5049802;28;20040;-78
2022/06/22 13:42:22;;;;;;;24.25;5.45;;;31.80;99.90;;;;;;5047041;28;20128;-80
2022/06/22 13:45:17;;;;;;;21.13;5.93;;;32.20;99.90;;;;;;5078109;28;20637;-78
2022/06/22 13:47:49;;;;;;;20.40;4.85;;;31.90;99.90;;;;;;5075096;28;20040;-80
2022/06/22 13:50:32;;;;;;;23.83;4.78;;;30.90;99.90;;;;;;5038575;28;20041;-78
2022/06/22 13:53:14;;;;;;;20.08;4.93;;;30.20;99.90;;;;;;5055842;28;20041;-78
2022/06/22 13:55:52;;;;;;;20.80;4.75;;;30.20;99.90;;;;;;5063932;28;20056;-79
2022/06/22 13:58:51;;;;;;;26.20;5.15;;;30.20;99.90;;;;;;5047784;28;20036;-78
2022/06/22 14:01:37;;;;;;;19.52;4.78;;;30.00;99.90;;;;;;5052474;28;20128;-79
2022/06/22 14:04:18;;;;;;;20.40;4.88;;;30.20;99.90;;;;;;5054096;28;20048;-79
2022/06/22 14:07:10;;;;;;;28.60;5.50;;;30.00;99.90;;;;;;5072972;28;20132;-81
2022/06/22 14:09:57;;;;;;;24.95;4.93;;;30.00;99.90;;;;;;5074881;28;20059;-82
2022/06/22 14:12:30;;;;;;;27.23;5.80;;;29.80;99.90;;;;;;5056826;28;20036;-79